sensor_id;sensor_type;location;lat;lon;timestamp;P1;durP1;ratioP1;P2;durP2;ratioP2
15913;SDS011;8055;51.930;8.840;2023-03-11T00:01:04;7.28;;;5.03;;
15913;SDS011;8055;51.930;8.840;2023-03-11T00:03:30;6.28;;;4.35;;
15913;SDS011;8055;51.930;8.840;2023-03-11T00:05:55;5.97;;;4.68;;
15913;SDS011;8055;51.930;8.840;2023-03-11T00:08:23;6.65;;;4.68;;
15913;SDS011;8055;51.930;8.840;2023-03-11T00:10:53;7.45;;;4.68;;
15913;SDS011;8055;51.930;8.840;2023-03-11T00:13:20;7.55;;;4.55;;
15913;SDS011;8055;51.930;8.840;2023-03-11T00:15:47;7.43;;;5.40;;
15913;SDS011;8055;51.930;8.840;2023-03-11T00:18:15;5.60;;;4.40;;
15913;SDS011;8055;51.930;8.840;2023-03-11T00:20:42;8.35;;;5.00;;
15913;SDS011;8055;51.930;8.840;2023-03-11T00:23:10;8.00;;;4.78;;
15913;SDS011;8055;51.930;8.840;2023-03-11T00:25:37;6.10;;;4.47;;
15913;SDS011;8055;51.930;8.840;2023-03-11T00:28:04;7.88;;;4.63;;
15913;SDS011;8055;51.930;8.840;2023-03-11T00:30:31;6.13;;;4.60;;
15913;SDS011;8055;51.930;8.840;2023-03-11T00:32:57;7.75;;;4.47;;
15913;SDS011;8055;51.930;8.840;2023-03-11T00:35:24;5.97;;;4.32;;
15913;SDS011;8055;51.930;8.840;2023-03-11T00:37:53;6.38;;;4.47;;
15913;SDS011;8055;51.930;8.840;2023-03-11T00:40:20;5.45;;;4.25;;
15913;SDS011;8055;51.930;8.840;2023-03-11T00:42:47;7.07;;;4.65;;
15913;SDS011;8055;51.930;8.840;2023-03-11T00:45:12;6.22;;;4.63;;
15913;SDS011;8055;51.930;8.840;2023-03-11T00:47:40;12.27;;;6.00;;
15913;SDS011;8055;51.930;8.840;2023-03-11T00:50:05;9.00;;;4.85;;
15913;SDS011;8055;51.930;8.840;2023-03-11T00:52:32;8.43;;;4.40;;
15913;SDS011;8055;51.930;8.840;2023-03-11T00:54:58;7.05;;;4.43;;
15913;SDS011;8055;51.930;8.840;2023-03-11T00:57:23;7.93;;;4.50;;
15913;SDS011;8055;51.930;8.840;2023-03-11T00:59:49;10.30;;;4.80;;
15913;SDS011;8055;51.930;8.840;2023-03-11T01:02:14;7.15;;;4.38;;
15913;SDS011;8055;51.930;8.840;2023-03-11T01:04:39;8.75;;;4.50;;
15913;SDS011;8055;51.930;8.840;2023-03-11T01:07:05;6.28;;;4.50;;
15913;SDS011;8055;51.930;8.840;2023-03-11T01:09:30;6.80;;;4.25;;
15913;SDS011;8055;51.930;8.840;2023-03-11T01:11:55;7.95;;;4.10;;
15913;SDS011;8055;51.930;8.840;2023-03-11T01:14:21;7.38;;;4.20;;
15913;SDS011;8055;51.930;8.840;2023-03-11T01:16:46;8.13;;;4.70;;
15913;SDS011;8055;51.930;8.840;2023-03-11T01:19:12;6.97;;;4.05;;
15913;SDS011;8055;51.930;8.840;2023-03-11T01:21:37;9.50;;;4.18;;
15913;SDS011;8055;51.930;8.840;2023-03-11T01:24:03;14.07;;;3.92;;
15913;SDS011;8055;51.930;8.840;2023-03-11T01:26:29;8.65;;;4.53;;
15913;SDS011;8055;51.930;8.840;2023-03-11T01:28:54;8.77;;;3.97;;
15913;SDS011;8055;51.930;8.840;2023-03-11T01:31:19;9.10;;;4.70;;
15913;SDS011;8055;51.930;8.840;2023-03-11T01:33:45;6.75;;;4.13;;
15913;SDS011;8055;51.930;8.840;2023-03-11T01:36:10;4.72;;;4.15;;
15913;SDS011;8055;51.930;8.840;2023-03-11T01:38:36;8.27;;;4.10;;
15913;SDS011;8055;51.930;8.840;2023-03-11T01:41:01;7.63;;;3.80;;
15913;SDS011;8055;51.930;8.840;2023-03-11T01:48:45;10.60;;;4.80;;
15913;SDS011;8055;51.930;8.840;2023-03-11T01:51:12;8.00;;;5.18;;
15913;SDS011;8055;51.930;8.840;2023-03-11T01:53:39;9.55;;;4.47;;
15913;SDS011;8055;51.930;8.840;2023-03-11T01:56:05;8.15;;;4.60;;
15913;SDS011;8055;51.930;8.840;2023-03-11T01:58:33;10.55;;;4.55;;
15913;SDS011;8055;51.930;8.840;2023-03-11T02:01:03;10.10;;;5.40;;
15913;SDS011;8055;51.930;8.840;2023-03-11T02:03:30;8.60;;;4.18;;
15913;SDS011;8055;51.930;8.840;2023-03-11T02:05:59;7.82;;;3.35;;
15913;SDS011;8055;51.930;8.840;2023-03-11T02:08:26;8.27;;;4.93;;
15913;SDS011;8055;51.930;8.840;2023-03-11T02:10:54;8.93;;;4.45;;
15913;SDS011;8055;51.930;8.840;2023-03-11T02:13:20;10.50;;;4.55;;
15913;SDS011;8055;51.930;8.840;2023-03-11T02:15:47;7.28;;;5.00;;
15913;SDS011;8055;51.930;8.840;2023-03-11T02:18:13;8.45;;;4.65;;
15913;SDS011;8055;51.930;8.840;2023-03-11T02:20:42;9.43;;;4.65;;
15913;SDS011;8055;51.930;8.840;2023-03-11T02:23:15;7.82;;;5.05;;
15913;SDS011;8055;51.930;8.840;2023-03-11T02:25:54;10.00;;;4.78;;
15913;SDS011;8055;51.930;8.840;2023-03-11T02:28:28;9.30;;;6.32;;
15913;SDS011;8055;51.930;8.840;2023-03-11T02:30:56;9.75;;;5.50;;
15913;SDS011;8055;51.930;8.840;2023-03-11T02:33:22;11.77;;;5.72;;
15913;SDS011;8055;51.930;8.840;2023-03-11T02:35:52;14.63;;;6.05;;
15913;SDS011;8055;51.930;8.840;2023-03-11T02:38:17;15.55;;;6.03;;
15913;SDS011;8055;51.930;8.840;2023-03-11T02:40:45;8.57;;;4.88;;
15913;SDS011;8055;51.930;8.840;2023-03-11T02:43:17;12.23;;;5.82;;
15913;SDS011;8055;51.930;8.840;2023-03-11T02:46:03;8.57;;;5.63;;
15913;SDS011;8055;51.930;8.840;2023-03-11T02:48:31;12.65;;;5.95;;
15913;SDS011;8055;51.930;8.840;2023-03-11T02:50:56;7.95;;;5.70;;
15913;SDS011;8055;51.930;8.840;2023-03-11T02:53:23;9.73;;;5.50;;
15913;SDS011;8055;51.930;8.840;2023-03-11T02:55:50;11.00;;;5.70;;
15913;SDS011;8055;51.930;8.840;2023-03-11T02:58:15;10.50;;;5.75;;
15913;SDS011;8055;51.930;8.840;2023-03-11T03:00:41;10.38;;;6.22;;
15913;SDS011;8055;51.930;8.840;2023-03-11T03:03:06;10.45;;;5.80;;
15913;SDS011;8055;51.930;8.840;2023-03-11T03:05:32;9.40;;;6.28;;
15913;SDS011;8055;51.930;8.840;2023-03-11T03:07:58;12.18;;;6.63;;
15913;SDS011;8055;51.930;8.840;2023-03-11T03:10:23;11.23;;;6.50;;
15913;SDS011;8055;51.930;8.840;2023-03-11T03:12:49;13.70;;;6.22;;
15913;SDS011;8055;51.930;8.840;2023-03-11T03:15:15;16.80;;;6.90;;
15913;SDS011;8055;51.930;8.840;2023-03-11T03:17:41;14.05;;;7.15;;
15913;SDS011;8055;51.930;8.840;2023-03-11T03:20:06;13.13;;;6.65;;
15913;SDS011;8055;51.930;8.840;2023-03-11T03:22:35;10.05;;;6.03;;
15913;SDS011;8055;51.930;8.840;2023-03-11T03:25:01;9.95;;;5.95;;
15913;SDS011;8055;51.930;8.840;2023-03-11T03:27:27;10.48;;;5.60;;
15913;SDS011;8055;51.930;8.840;2023-03-11T03:29:53;11.57;;;5.50;;
15913;SDS011;8055;51.930;8.840;2023-03-11T03:32:18;10.18;;;5.28;;
15913;SDS011;8055;51.930;8.840;2023-03-11T03:34:43;17.05;;;5.85;;
15913;SDS011;8055;51.930;8.840;2023-03-11T03:37:09;9.13;;;5.18;;
15913;SDS011;8055;51.930;8.840;2023-03-11T03:39:34;15.60;;;5.03;;
15913;SDS011;8055;51.930;8.840;2023-03-11T03:41:59;9.35;;;5.35;;
15913;SDS011;8055;51.930;8.840;2023-03-11T03:44:25;8.43;;;4.60;;
15913;SDS011;8055;51.930;8.840;2023-03-11T03:46:50;10.50;;;5.20;;
15913;SDS011;8055;51.930;8.840;2023-03-11T03:49:16;9.27;;;4.63;;
15913;SDS011;8055;51.930;8.840;2023-03-11T03:51:41;13.13;;;5.35;;
15913;SDS011;8055;51.930;8.840;2023-03-11T03:54:06;11.85;;;5.22;;
15913;SDS011;8055;51.930;8.840;2023-03-11T03:56:32;7.07;;;5.22;;
15913;SDS011;8055;51.930;8.840;2023-03-11T03:58:57;14.52;;;6.05;;
15913;SDS011;8055;51.930;8.840;2023-03-11T04:01:23;14.05;;;5.90;;
15913;SDS011;8055;51.930;8.840;2023-03-11T04:03:48;13.63;;;5.63;;
15913;SDS011;8055;51.930;8.840;2023-03-11T04:06:15;10.00;;;5.65;;
15913;SDS011;8055;51.930;8.840;2023-03-11T04:08:42;9.77;;;4.80;;
15913;SDS011;8055;51.930;8.840;2023-03-11T04:11:08;12.57;;;5.15;;
15913;SDS011;8055;51.930;8.840;2023-03-11T04:13:34;11.15;;;5.45;;
15913;SDS011;8055;51.930;8.840;2023-03-11T04:16:01;12.30;;;5.75;;
15913;SDS011;8055;51.930;8.840;2023-03-11T04:18:28;12.40;;;5.00;;
15913;SDS011;8055;51.930;8.840;2023-03-11T04:20:53;10.55;;;5.32;;
15913;SDS011;8055;51.930;8.840;2023-03-11T04:23:18;11.55;;;5.13;;
15913;SDS011;8055;51.930;8.840;2023-03-11T04:25:44;11.55;;;5.88;;
15913;SDS011;8055;51.930;8.840;2023-03-11T04:28:09;13.50;;;5.60;;
15913;SDS011;8055;51.930;8.840;2023-03-11T04:30:34;13.27;;;5.22;;
15913;SDS011;8055;51.930;8.840;2023-03-11T04:33:00;10.75;;;4.75;;
15913;SDS011;8055;51.930;8.840;2023-03-11T04:35:25;13.80;;;5.40;;
15913;SDS011;8055;51.930;8.840;2023-03-11T04:37:50;10.95;;;4.82;;
15913;SDS011;8055;51.930;8.840;2023-03-11T04:40:16;9.73;;;4.72;;
15913;SDS011;8055;51.930;8.840;2023-03-11T04:42:41;8.27;;;4.43;;
15913;SDS011;8055;51.930;8.840;2023-03-11T04:45:07;19.98;;;4.93;;
15913;SDS011;8055;51.930;8.840;2023-03-11T04:47:33;8.88;;;4.72;;
15913;SDS011;8055;51.930;8.840;2023-03-11T04:49:59;9.75;;;4.18;;
15913;SDS011;8055;51.930;8.840;2023-03-11T04:52:24;13.18;;;4.10;;
15913;SDS011;8055;51.930;8.840;2023-03-11T04:54:50;9.85;;;4.93;;
15913;SDS011;8055;51.930;8.840;2023-03-11T04:57:15;9.00;;;4.75;;
15913;SDS011;8055;51.930;8.840;2023-03-11T04:59:41;8.93;;;4.60;;
15913;SDS011;8055;51.930;8.840;2023-03-11T05:02:06;14.50;;;5.35;;
15913;SDS011;8055;51.930;8.840;2023-03-11T05:04:31;16.00;;;5.68;;
15913;SDS011;8055;51.930;8.840;2023-03-11T05:06:57;13.45;;;6.05;;
15913;SDS011;8055;51.930;8.840;2023-03-11T05:09:23;18.63;;;5.95;;
15913;SDS011;8055;51.930;8.840;2023-03-11T05:11:48;14.18;;;5.30;;
15913;SDS011;8055;51.930;8.840;2023-03-11T05:14:13;14.90;;;5.85;;
15913;SDS011;8055;51.930;8.840;2023-03-11T05:16:39;11.88;;;5.30;;
15913;SDS011;8055;51.930;8.840;2023-03-11T05:19:04;10.88;;;5.13;;
15913;SDS011;8055;51.930;8.840;2023-03-11T05:21:49;10.70;;;5.00;;
15913;SDS011;8055;51.930;8.840;2023-03-11T05:24:15;9.20;;;4.75;;
15913;SDS011;8055;51.930;8.840;2023-03-11T05:26:40;12.20;;;4.85;;
15913;SDS011;8055;51.930;8.840;2023-03-11T05:29:05;9.57;;;4.80;;
15913;SDS011;8055;51.930;8.840;2023-03-11T05:31:31;10.25;;;5.05;;
15913;SDS011;8055;51.930;8.840;2023-03-11T05:33:56;14.10;;;5.55;;
15913;SDS011;8055;51.930;8.840;2023-03-11T05:36:21;8.30;;;4.63;;
15913;SDS011;8055;51.930;8.840;2023-03-11T05:38:47;11.02;;;4.53;;
15913;SDS011;8055;51.930;8.840;2023-03-11T05:41:12;16.92;;;5.47;;
15913;SDS011;8055;51.930;8.840;2023-03-11T05:43:37;10.50;;;4.35;;
15913;SDS011;8055;51.930;8.840;2023-03-11T05:46:03;8.48;;;4.68;;
15913;SDS011;8055;51.930;8.840;2023-03-11T05:48:28;12.15;;;5.70;;
15913;SDS011;8055;51.930;8.840;2023-03-11T05:50:54;10.52;;;5.03;;
15913;SDS011;8055;51.930;8.840;2023-03-11T05:53:19;10.32;;;5.55;;
15913;SDS011;8055;51.930;8.840;2023-03-11T05:55:44;11.77;;;5.13;;
15913;SDS011;8055;51.930;8.840;2023-03-11T05:58:10;9.00;;;5.18;;
15913;SDS011;8055;51.930;8.840;2023-03-11T06:00:35;12.32;;;5.25;;
15913;SDS011;8055;51.930;8.840;2023-03-11T06:03:01;11.00;;;4.75;;
15913;SDS011;8055;51.930;8.840;2023-03-11T06:05:26;16.55;;;4.28;;
15913;SDS011;8055;51.930;8.840;2023-03-11T06:07:51;10.43;;;4.70;;
15913;SDS011;8055;51.930;8.840;2023-03-11T06:10:17;8.77;;;3.67;;
15913;SDS011;8055;51.930;8.840;2023-03-11T06:12:42;8.38;;;3.67;;
15913;SDS011;8055;51.930;8.840;2023-03-11T06:15:08;8.55;;;4.13;;
15913;SDS011;8055;51.930;8.840;2023-03-11T06:17:33;10.70;;;3.78;;
15913;SDS011;8055;51.930;8.840;2023-03-11T06:19:59;11.00;;;4.68;;
15913;SDS011;8055;51.930;8.840;2023-03-11T06:22:24;9.82;;;4.20;;
15913;SDS011;8055;51.930;8.840;2023-03-11T06:24:50;12.20;;;5.07;;
15913;SDS011;8055;51.930;8.840;2023-03-11T06:27:15;7.63;;;4.30;;
15913;SDS011;8055;51.930;8.840;2023-03-11T06:29:40;11.80;;;5.03;;
15913;SDS011;8055;51.930;8.840;2023-03-11T06:32:06;22.75;;;9.25;;
15913;SDS011;8055;51.930;8.840;2023-03-11T06:34:31;13.40;;;5.20;;
15913;SDS011;8055;51.930;8.840;2023-03-11T06:36:57;12.27;;;6.53;;
15913;SDS011;8055;51.930;8.840;2023-03-11T06:39:24;11.85;;;6.25;;
15913;SDS011;8055;51.930;8.840;2023-03-11T06:41:49;49.25;;;24.45;;
15913;SDS011;8055;51.930;8.840;2023-03-11T06:44:14;27.92;;;14.90;;
15913;SDS011;8055;51.930;8.840;2023-03-11T06:46:40;22.30;;;10.85;;
15913;SDS011;8055;51.930;8.840;2023-03-11T06:49:05;11.82;;;4.95;;
15913;SDS011;8055;51.930;8.840;2023-03-11T06:51:31;11.63;;;4.80;;
15913;SDS011;8055;51.930;8.840;2023-03-11T06:53:56;8.25;;;4.43;;
15913;SDS011;8055;51.930;8.840;2023-03-11T06:56:22;8.20;;;4.35;;
15913;SDS011;8055;51.930;8.840;2023-03-11T06:58:47;8.13;;;4.28;;
15913;SDS011;8055;51.930;8.840;2023-03-11T07:03:40;6.38;;;3.80;;
15913;SDS011;8055;51.930;8.840;2023-03-11T07:06:05;8.20;;;3.20;;
15913;SDS011;8055;51.930;8.840;2023-03-11T07:08:36;11.30;;;3.20;;
15913;SDS011;8055;51.930;8.840;2023-03-11T07:11:18;7.90;;;3.10;;
15913;SDS011;8055;51.930;8.840;2023-03-11T07:13:48;9.43;;;3.00;;
15913;SDS011;8055;51.930;8.840;2023-03-11T07:16:14;24.77;;;4.28;;
15913;SDS011;8055;51.930;8.840;2023-03-11T07:18:42;9.15;;;3.22;;
15913;SDS011;8055;51.930;8.840;2023-03-11T07:21:10;7.80;;;3.08;;
15913;SDS011;8055;51.930;8.840;2023-03-11T07:23:38;6.10;;;2.95;;
15913;SDS011;8055;51.930;8.840;2023-03-11T07:26:03;16.45;;;3.20;;
15913;SDS011;8055;51.930;8.840;2023-03-11T07:28:29;8.65;;;2.83;;
15913;SDS011;8055;51.930;8.840;2023-03-11T07:30:55;6.22;;;2.60;;
15913;SDS011;8055;51.930;8.840;2023-03-11T07:33:21;7.82;;;2.70;;
15913;SDS011;8055;51.930;8.840;2023-03-11T07:35:50;7.10;;;3.22;;
15913;SDS011;8055;51.930;8.840;2023-03-11T07:38:16;6.40;;;3.35;;
15913;SDS011;8055;51.930;8.840;2023-03-11T07:40:42;11.27;;;4.30;;
15913;SDS011;8055;51.930;8.840;2023-03-11T07:43:08;8.00;;;2.90;;
15913;SDS011;8055;51.930;8.840;2023-03-11T07:45:34;3.78;;;2.60;;
15913;SDS011;8055;51.930;8.840;2023-03-11T07:47:59;8.32;;;2.50;;
15913;SDS011;8055;51.930;8.840;2023-03-11T07:50:25;7.10;;;2.53;;
15913;SDS011;8055;51.930;8.840;2023-03-11T07:52:50;4.38;;;2.53;;
15913;SDS011;8055;51.930;8.840;2023-03-11T07:55:16;8.98;;;2.20;;
15913;SDS011;8055;51.930;8.840;2023-03-11T07:57:41;8.30;;;2.90;;
15913;SDS011;8055;51.930;8.840;2023-03-11T08:00:07;10.40;;;3.30;;
15913;SDS011;8055;51.930;8.840;2023-03-11T08:02:34;7.15;;;3.20;;
15913;SDS011;8055;51.930;8.840;2023-03-11T08:04:59;11.57;;;3.45;;
15913;SDS011;8055;51.930;8.840;2023-03-11T08:07:25;11.40;;;3.53;;
15913;SDS011;8055;51.930;8.840;2023-03-11T08:09:50;11.57;;;4.18;;
15913;SDS011;8055;51.930;8.840;2023-03-11T08:12:15;11.40;;;3.53;;
15913;SDS011;8055;51.930;8.840;2023-03-11T08:14:41;12.48;;;3.42;;
15913;SDS011;8055;51.930;8.840;2023-03-11T08:17:08;7.63;;;3.38;;
15913;SDS011;8055;51.930;8.840;2023-03-11T08:19:34;7.40;;;3.00;;
15913;SDS011;8055;51.930;8.840;2023-03-11T08:22:01;10.85;;;3.35;;
15913;SDS011;8055;51.930;8.840;2023-03-11T08:24:27;11.02;;;3.22;;
15913;SDS011;8055;51.930;8.840;2023-03-11T08:26:53;6.20;;;2.92;;
15913;SDS011;8055;51.930;8.840;2023-03-11T08:29:19;11.70;;;3.10;;
15913;SDS011;8055;51.930;8.840;2023-03-11T08:31:45;6.43;;;3.03;;
15913;SDS011;8055;51.930;8.840;2023-03-11T08:34:10;6.45;;;3.25;;
15913;SDS011;8055;51.930;8.840;2023-03-11T08:36:36;6.68;;;2.95;;
15913;SDS011;8055;51.930;8.840;2023-03-11T08:39:02;9.25;;;3.05;;
15913;SDS011;8055;51.930;8.840;2023-03-11T08:41:28;14.90;;;3.00;;
15913;SDS011;8055;51.930;8.840;2023-03-11T08:43:53;80.05;;;48.17;;
15913;SDS011;8055;51.930;8.840;2023-03-11T08:46:26;108.00;;;44.92;;
15913;SDS011;8055;51.930;8.840;2023-03-11T08:48:54;82.45;;;30.60;;
15913;SDS011;8055;51.930;8.840;2023-03-11T08:51:21;110.45;;;40.67;;
15913;SDS011;8055;51.930;8.840;2023-03-11T08:53:48;93.53;;;38.63;;
15913;SDS011;8055;51.930;8.840;2023-03-11T08:56:14;50.33;;;22.17;;
15913;SDS011;8055;51.930;8.840;2023-03-11T08:58:39;50.67;;;22.48;;
15913;SDS011;8055;51.930;8.840;2023-03-11T09:01:05;37.08;;;18.50;;
15913;SDS011;8055;51.930;8.840;2023-03-11T09:03:32;18.25;;;7.53;;
15913;SDS011;8055;51.930;8.840;2023-03-11T09:05:59;27.75;;;18.15;;
15913;SDS011;8055;51.930;8.840;2023-03-11T09:08:26;7.72;;;4.18;;
15913;SDS011;8055;51.930;8.840;2023-03-11T09:10:51;10.70;;;4.45;;
15913;SDS011;8055;51.930;8.840;2023-03-11T09:13:17;9.85;;;3.90;;
15913;SDS011;8055;51.930;8.840;2023-03-11T09:15:42;6.60;;;3.10;;
15913;SDS011;8055;51.930;8.840;2023-03-11T09:18:11;9.85;;;3.67;;
15913;SDS011;8055;51.930;8.840;2023-03-11T09:20:38;10.57;;;3.33;;
15913;SDS011;8055;51.930;8.840;2023-03-11T09:23:05;12.25;;;3.63;;
15913;SDS011;8055;51.930;8.840;2023-03-11T09:25:30;8.57;;;3.83;;
15913;SDS011;8055;51.930;8.840;2023-03-11T09:27:56;11.75;;;3.10;;
15913;SDS011;8055;51.930;8.840;2023-03-11T09:30:21;7.90;;;3.72;;
15913;SDS011;8055;51.930;8.840;2023-03-11T09:32:46;9.50;;;3.90;;
15913;SDS011;8055;51.930;8.840;2023-03-11T09:35:12;6.32;;;3.08;;
15913;SDS011;8055;51.930;8.840;2023-03-11T09:37:37;10.98;;;3.25;;
15913;SDS011;8055;51.930;8.840;2023-03-11T09:40:03;11.73;;;3.40;;
15913;SDS011;8055;51.930;8.840;2023-03-11T09:42:32;10.35;;;3.30;;
15913;SDS011;8055;51.930;8.840;2023-03-11T09:45:18;6.28;;;3.10;;
15913;SDS011;8055;51.930;8.840;2023-03-11T09:53:42;8.70;;;3.55;;
15913;SDS011;8055;51.930;8.840;2023-03-11T09:56:10;11.60;;;3.42;;
15913;SDS011;8055;51.930;8.840;2023-03-11T09:58:43;10.43;;;2.70;;
15913;SDS011;8055;51.930;8.840;2023-03-11T10:03:40;7.47;;;2.50;;
15913;SDS011;8055;51.930;8.840;2023-03-11T10:06:14;9.93;;;3.40;;
15913;SDS011;8055;51.930;8.840;2023-03-11T10:08:42;9.25;;;2.88;;
15913;SDS011;8055;51.930;8.840;2023-03-11T10:13:55;8.55;;;2.80;;
15913;SDS011;8055;51.930;8.840;2023-03-11T10:16:34;8.82;;;2.05;;
15913;SDS011;8055;51.930;8.840;2023-03-11T10:19:10;26.77;;;3.70;;
15913;SDS011;8055;51.930;8.840;2023-03-11T10:21:49;4.43;;;2.05;;
15913;SDS011;8055;51.930;8.840;2023-03-11T10:27:13;9.32;;;3.47;;
15913;SDS011;8055;51.930;8.840;2023-03-11T10:29:50;8.88;;;2.40;;
15913;SDS011;8055;51.930;8.840;2023-03-11T10:32:23;8.75;;;2.35;;
15913;SDS011;8055;51.930;8.840;2023-03-11T10:34:56;9.63;;;2.38;;
15913;SDS011;8055;51.930;8.840;2023-03-11T10:37:36;12.93;;;6.95;;
15913;SDS011;8055;51.930;8.840;2023-03-11T10:40:18;6.72;;;3.42;;
15913;SDS011;8055;51.930;8.840;2023-03-11T10:42:51;7.28;;;2.30;;
15913;SDS011;8055;51.930;8.840;2023-03-11T10:45:20;6.72;;;2.63;;
15913;SDS011;8055;51.930;8.840;2023-03-11T10:47:47;5.63;;;2.30;;
15913;SDS011;8055;51.930;8.840;2023-03-11T10:50:16;8.18;;;2.88;;
15913;SDS011;8055;51.930;8.840;2023-03-11T10:52:45;8.30;;;2.47;;
15913;SDS011;8055;51.930;8.840;2023-03-11T10:55:29;6.60;;;1.98;;
15913;SDS011;8055;51.930;8.840;2023-03-11T10:58:10;6.20;;;1.98;;
15913;SDS011;8055;51.930;8.840;2023-03-11T11:03:02;12.43;;;2.78;;
15913;SDS011;8055;51.930;8.840;2023-03-11T11:05:31;5.50;;;1.63;;
15913;SDS011;8055;51.930;8.840;2023-03-11T11:08:05;4.35;;;1.90;;
15913;SDS011;8055;51.930;8.840;2023-03-11T11:10:47;7.97;;;1.58;;
15913;SDS011;8055;51.930;8.840;2023-03-11T11:13:16;5.80;;;2.10;;
15913;SDS011;8055;51.930;8.840;2023-03-11T11:18:33;6.38;;;2.35;;
15913;SDS011;8055;51.930;8.840;2023-03-11T11:21:14;5.18;;;1.88;;
15913;SDS011;8055;51.930;8.840;2023-03-11T11:23:50;8.00;;;1.90;;
15913;SDS011;8055;51.930;8.840;2023-03-11T11:26:26;4.40;;;2.10;;
15913;SDS011;8055;51.930;8.840;2023-03-11T11:31:44;7.63;;;2.13;;
15913;SDS011;8055;51.930;8.840;2023-03-11T11:34:26;7.18;;;1.60;;
15913;SDS011;8055;51.930;8.840;2023-03-11T11:36:56;5.55;;;1.58;;
15913;SDS011;8055;51.930;8.840;2023-03-11T11:39:25;12.18;;;2.10;;
15913;SDS011;8055;51.930;8.840;2023-03-11T11:41:53;16.77;;;2.05;;
15913;SDS011;8055;51.930;8.840;2023-03-11T11:44:21;12.13;;;2.28;;
15913;SDS011;8055;51.930;8.840;2023-03-11T11:46:57;8.70;;;1.60;;
15913;SDS011;8055;51.930;8.840;2023-03-11T11:49:28;7.05;;;2.08;;
15913;SDS011;8055;51.930;8.840;2023-03-11T11:54:49;7.55;;;2.63;;
15913;SDS011;8055;51.930;8.840;2023-03-11T11:57:18;11.23;;;1.90;;
15913;SDS011;8055;51.930;8.840;2023-03-11T11:59:45;4.90;;;1.80;;
15913;SDS011;8055;51.930;8.840;2023-03-11T12:16:05;24.05;;;10.27;;
15913;SDS011;8055;51.930;8.840;2023-03-11T12:18:41;6.70;;;3.42;;
15913;SDS011;8055;51.930;8.840;2023-03-11T12:24:16;9.48;;;3.65;;
15913;SDS011;8055;51.930;8.840;2023-03-11T12:26:57;11.40;;;3.08;;
15913;SDS011;8055;51.930;8.840;2023-03-11T12:32:24;11.77;;;4.68;;
15913;SDS011;8055;51.930;8.840;2023-03-11T12:34:52;10.80;;;5.10;;
15913;SDS011;8055;51.930;8.840;2023-03-11T12:37:18;11.27;;;3.47;;
15913;SDS011;8055;51.930;8.840;2023-03-11T12:39:47;6.50;;;2.45;;
15913;SDS011;8055;51.930;8.840;2023-03-11T12:44:38;11.45;;;4.30;;
15913;SDS011;8055;51.930;8.840;2023-03-11T12:49:35;6.95;;;2.53;;
15913;SDS011;8055;51.930;8.840;2023-03-11T12:52:03;5.53;;;1.98;;
15913;SDS011;8055;51.930;8.840;2023-03-11T12:54:36;6.95;;;2.22;;
15913;SDS011;8055;51.930;8.840;2023-03-11T13:07:53;8.88;;;2.08;;
15913;SDS011;8055;51.930;8.840;2023-03-11T13:13:00;6.82;;;1.77;;
15913;SDS011;8055;51.930;8.840;2023-03-11T13:15:30;6.25;;;1.52;;
15913;SDS011;8055;51.930;8.840;2023-03-11T13:25:37;7.40;;;2.33;;
15913;SDS011;8055;51.930;8.840;2023-03-11T13:36:31;8.77;;;1.92;;
15913;SDS011;8055;51.930;8.840;2023-03-11T13:41:31;43.08;;;19.55;;
15913;SDS011;8055;51.930;8.840;2023-03-11T13:47:14;71.13;;;33.28;;
15913;SDS011;8055;51.930;8.840;2023-03-11T13:49:49;7.25;;;2.88;;
15913;SDS011;8055;51.930;8.840;2023-03-11T13:52:42;10.73;;;5.72;;
15913;SDS011;8055;51.930;8.840;2023-03-11T13:55:16;15.02;;;8.60;;
15913;SDS011;8055;51.930;8.840;2023-03-11T13:57:52;9.77;;;5.63;;
15913;SDS011;8055;51.930;8.840;2023-03-11T14:00:23;10.63;;;4.78;;
15913;SDS011;8055;51.930;8.840;2023-03-11T14:02:50;9.13;;;4.03;;
15913;SDS011;8055;51.930;8.840;2023-03-11T14:05:54;7.22;;;2.72;;
15913;SDS011;8055;51.930;8.840;2023-03-11T14:10:56;7.97;;;1.70;;
15913;SDS011;8055;51.930;8.840;2023-03-11T14:13:24;9.30;;;5.88;;
15913;SDS011;8055;51.930;8.840;2023-03-11T14:18:27;5.30;;;2.53;;
15913;SDS011;8055;51.930;8.840;2023-03-11T14:20:52;9.65;;;2.58;;
15913;SDS011;8055;51.930;8.840;2023-03-11T14:23:18;4.95;;;1.90;;
15913;SDS011;8055;51.930;8.840;2023-03-11T14:25:44;4.85;;;1.35;;
15913;SDS011;8055;51.930;8.840;2023-03-11T14:28:17;7.30;;;2.85;;
15913;SDS011;8055;51.930;8.840;2023-03-11T14:30:54;4.80;;;1.90;;
15913;SDS011;8055;51.930;8.840;2023-03-11T14:33:24;4.30;;;1.85;;
15913;SDS011;8055;51.930;8.840;2023-03-11T14:35:57;5.90;;;1.63;;
15913;SDS011;8055;51.930;8.840;2023-03-11T14:38:26;3.50;;;1.33;;
15913;SDS011;8055;51.930;8.840;2023-03-11T14:40:55;6.30;;;2.20;;
15913;SDS011;8055;51.930;8.840;2023-03-11T14:43:22;10.70;;;4.25;;
15913;SDS011;8055;51.930;8.840;2023-03-11T14:45:49;7.03;;;3.15;;
15913;SDS011;8055;51.930;8.840;2023-03-11T14:48:29;4.05;;;1.42;;
15913;SDS011;8055;51.930;8.840;2023-03-11T14:50:59;10.05;;;2.45;;
15913;SDS011;8055;51.930;8.840;2023-03-11T14:56:07;4.55;;;1.60;;
15913;SDS011;8055;51.930;8.840;2023-03-11T15:03:47;3.83;;;1.05;;
15913;SDS011;8055;51.930;8.840;2023-03-11T15:06:29;3.95;;;1.30;;
15913;SDS011;8055;51.930;8.840;2023-03-11T15:14:25;5.63;;;2.97;;
15913;SDS011;8055;51.930;8.840;2023-03-11T15:16:53;4.63;;;1.40;;
15913;SDS011;8055;51.930;8.840;2023-03-11T15:19:30;6.13;;;1.65;;
15913;SDS011;8055;51.930;8.840;2023-03-11T15:22:15;10.95;;;4.53;;
15913;SDS011;8055;51.930;8.840;2023-03-11T15:24:51;8.25;;;3.20;;
15913;SDS011;8055;51.930;8.840;2023-03-11T15:27:29;8.77;;;3.20;;
15913;SDS011;8055;51.930;8.840;2023-03-11T15:29:55;7.07;;;1.95;;
15913;SDS011;8055;51.930;8.840;2023-03-11T15:35:02;4.90;;;2.00;;
15913;SDS011;8055;51.930;8.840;2023-03-11T15:37:37;4.53;;;2.08;;
15913;SDS011;8055;51.930;8.840;2023-03-11T15:40:23;5.45;;;1.70;;
15913;SDS011;8055;51.930;8.840;2023-03-11T15:45:41;4.57;;;2.13;;
15913;SDS011;8055;51.930;8.840;2023-03-11T15:48:10;4.13;;;1.85;;
15913;SDS011;8055;51.930;8.840;2023-03-11T15:53:16;3.05;;;1.00;;
15913;SDS011;8055;51.930;8.840;2023-03-11T15:55:42;4.10;;;1.52;;
15913;SDS011;8055;51.930;8.840;2023-03-11T15:58:08;3.83;;;1.20;;
15913;SDS011;8055;51.930;8.840;2023-03-11T16:00:34;7.35;;;1.70;;
15913;SDS011;8055;51.930;8.840;2023-03-11T16:03:00;5.93;;;1.17;;
15913;SDS011;8055;51.930;8.840;2023-03-11T16:05:26;8.70;;;1.35;;
15913;SDS011;8055;51.930;8.840;2023-03-11T16:07:52;4.32;;;1.40;;
15913;SDS011;8055;51.930;8.840;2023-03-11T16:10:21;6.20;;;1.80;;
15913;SDS011;8055;51.930;8.840;2023-03-11T16:12:52;4.32;;;1.23;;
15913;SDS011;8055;51.930;8.840;2023-03-11T16:17:44;3.15;;;1.50;;
15913;SDS011;8055;51.930;8.840;2023-03-11T16:20:10;8.32;;;4.30;;
15913;SDS011;8055;51.930;8.840;2023-03-11T16:22:35;101.07;;;47.72;;
15913;SDS011;8055;51.930;8.840;2023-03-11T16:25:02;35.33;;;18.90;;
15913;SDS011;8055;51.930;8.840;2023-03-11T16:27:28;6.50;;;3.05;;
15913;SDS011;8055;51.930;8.840;2023-03-11T16:29:54;2.75;;;1.55;;
15913;SDS011;8055;51.930;8.840;2023-03-11T16:32:20;2.10;;;1.50;;
15913;SDS011;8055;51.930;8.840;2023-03-11T16:34:45;4.88;;;2.63;;
15913;SDS011;8055;51.930;8.840;2023-03-11T16:37:13;4.60;;;2.03;;
15913;SDS011;8055;51.930;8.840;2023-03-11T16:39:40;3.30;;;1.40;;
15913;SDS011;8055;51.930;8.840;2023-03-11T16:42:06;5.55;;;1.90;;
15913;SDS011;8055;51.930;8.840;2023-03-11T16:44:32;6.32;;;1.88;;
15913;SDS011;8055;51.930;8.840;2023-03-11T16:46:57;4.07;;;1.95;;
15913;SDS011;8055;51.930;8.840;2023-03-11T16:49:23;5.88;;;2.92;;
15913;SDS011;8055;51.930;8.840;2023-03-11T16:51:48;6.78;;;3.28;;
15913;SDS011;8055;51.930;8.840;2023-03-11T16:54:14;6.03;;;3.17;;
15913;SDS011;8055;51.930;8.840;2023-03-11T16:56:39;7.85;;;4.03;;
15913;SDS011;8055;51.930;8.840;2023-03-11T16:59:05;11.85;;;5.65;;
15913;SDS011;8055;51.930;8.840;2023-03-11T17:01:31;15.32;;;8.10;;